Time;durP1;ratioP1;P1;durP2;ratioP2;P2;SDS_P1;SDS_P2;PMS_P1;PMS_P2;Temp;Humidity;BMP_temperature;BMP_pressure;BME280_temperature;BME280_humidity;BME280_pressure;Samples;Min_cycle;Max_cycle;Signal;HPM_P1;HPM_P2
2022/06/11 00:01:36;;;;;;;5.55;3.90;;;;;;;15.80;64.74;99504.88;2619096;54;20026;-67
2022/06/11 00:04:11;;;;;;;3.70;3.33;;;;;;;15.70;64.61;99513.28;2618835;54;20040;-69
2022/06/11 00:06:47;;;;;;;6.90;3.65;;;;;;;15.62;65.04;99510.81;2620733;54;20538;-67
2022/06/11 00:09:19;;;;;;;6.47;3.60;;;;;;;15.52;65.56;99507.75;2619906;54;20030;-67
2022/06/11 00:11:51;;;;;;;7.75;3.83;;;;;;;15.50;65.78;99507.13;2618818;54;20042;-66
2022/06/11 00:14:22;;;;;;;5.53;3.15;;;;;;;15.54;65.34;99513.69;2618983;54;20045;-65
2022/06/11 00:16:52;;;;;;;6.88;3.70;;;;;;;15.61;65.12;99511.84;2618739;54;20046;-66
2022/06/11 00:19:23;;;;;;;6.00;3.67;;;;;;;15.55;65.11;99504.66;2618072;54;20026;-66
2022/06/11 00:21:57;;;;;;;8.05;4.45;;;;;;;15.54;65.60;99503.03;2618803;54;20580;-66
2022/06/11 00:24:28;;;;;;;5.97;3.42;;;;;;;15.46;65.67;99500.56;2618727;54;20039;-66
2022/06/11 00:26:59;;;;;;;6.22;3.70;;;;;;;15.42;65.60;99502.00;2618652;54;20029;-66
2022/06/11 00:29:32;;;;;;;4.78;3.45;;;;;;;15.25;66.24;99498.97;2618328;54;20035;-67
2022/06/11 00:32:02;;;;;;;5.17;3.00;;;;;;;15.30;66.32;99510.63;2618883;54;20031;-66
2022/06/11 00:34:32;;;;;;;5.47;3.60;;;;;;;15.37;65.84;99505.31;2618956;54;20030;-66
2022/06/11 00:37:06;;;;;;;7.13;3.42;;;;;;;15.35;65.68;99502.84;2619520;54;20030;-65
2022/06/11 00:39:38;;;;;;;7.00;3.53;;;;;;;15.31;65.31;99504.28;2620516;39;20451;-66
2022/06/11 00:42:15;;;;;;;6.90;3.30;;;;;;;15.19;65.79;99513.94;2619546;54;20039;-66
2022/06/11 00:44:45;;;;;;;8.40;3.33;;;;;;;15.19;66.41;99505.13;2619622;54;20033;-65
2022/06/11 00:47:18;;;;;;;5.22;3.33;;;;;;;15.19;66.01;99503.28;2619758;39;20522;-65
2022/06/11 00:49:52;;;;;;;6.47;3.25;;;;;;;15.08;66.09;99499.38;2619616;54;20035;-66
2022/06/11 00:52:30;;;;;;;6.18;3.50;;;;;;;15.16;66.75;99508.19;2619935;39;20541;-65
2022/06/11 00:55:06;;;;;;;5.05;3.20;;;;;;;15.26;66.04;99504.06;2619304;54;20039;-65
2022/06/11 00:57:41;;;;;;;5.32;2.92;;;;;;;15.27;66.14;99495.06;2619010;54;20034;-66
2022/06/11 01:00:15;;;;;;;5.00;3.13;;;;;;;15.20;66.10;99496.09;2618876;47;20031;-66
2022/06/11 01:02:45;;;;;;;6.30;3.67;;;;;;;15.21;66.38;99503.88;2619434;54;20560;-66
2022/06/11 01:05:18;;;;;;;8.43;3.30;;;;;;;15.22;66.28;99502.84;2620311;31;20513;-67
2022/06/11 01:08:15;;;;;;;3.60;3.13;;;;;;;15.27;66.10;99497.75;2623189;54;20045;-65
2022/06/11 01:11:04;;;;;;;6.50;3.47;;;;;;;15.29;66.42;99498.34;2623527;54;20035;-66
2022/06/11 01:13:40;;;;;;;6.50;4.10;;;;;;;15.33;65.78;99493.41;2622672;47;20030;-66
2022/06/11 01:16:14;;;;;;;5.20;3.33;;;;;;;15.22;65.76;99497.53;2619830;54;20561;-66
2022/06/11 01:19:08;;;;;;;5.28;3.65;;;;;;;15.29;65.93;99492.19;2619430;54;20034;-66
2022/06/11 01:21:48;;;;;;;7.60;3.63;;;;;;;15.23;66.24;99491.19;2620850;39;20443;-66
2022/06/11 01:24:49;;;;;;;8.10;3.90;;;;;;;15.15;66.19;99494.06;2619580;54;20030;-66
2022/06/11 01:27:37;;;;;;;7.50;3.67;;;;;;;15.02;66.10;99496.69;2619138;54;20035;-66
2022/06/11 01:30:11;;;;;;;4.40;3.13;;;;;;;14.99;66.20;99492.63;2619057;54;20034;-66
2022/06/11 01:32:44;;;;;;;;;;;;;;;14.98;66.28;99492.81;2619119;54;20030;-67
2022/06/11 01:35:25;;;;;;;5.13;3.47;;;;;;;14.96;66.74;99492.19;2618761;54;19941;-66
2022/06/11 01:38:03;;;;;;;5.45;3.20;;;;;;;14.92;66.96;99499.78;2619048;54;20035;-66
2022/06/11 01:40:40;;;;;;;5.82;3.28;;;;;;;15.01;66.89;99503.06;2619226;54;20026;-65
2022/06/11 01:43:23;;;;;;;4.03;3.53;;;;;;;15.12;67.01;99497.13;2619273;54;20030;-66
2022/06/11 01:46:04;;;;;;;6.75;3.30;;;;;;;15.22;66.24;99492.19;2619241;54;20038;-65
2022/06/11 01:48:34;;;;;;;5.07;3.40;;;;;;;15.28;66.58;99498.56;2619283;54;20572;-65
2022/06/11 01:51:24;;;;;;;5.85;3.58;;;;;;;15.42;66.00;99496.69;2619902;54;20031;-66
2022/06/11 01:54:26;;;;;;;3.75;3.03;;;;;;;15.43;66.47;99493.84;2619393;54;20053;-66
2022/06/11 01:57:19;;;;;;;3.88;3.38;;;;;;;15.54;65.75;99500.34;2619129;54;20038;-66
2022/06/11 02:00:03;;;;;;;7.10;3.60;;;;;;;15.51;65.93;99498.94;2619276;54;20585;-66
2022/06/11 02:03:02;;;;;;;8.07;3.05;;;;;;;15.48;65.57;99494.03;2619432;54;20034;-66
2022/06/11 02:05:43;;;;;;;7.35;3.15;;;;;;;15.54;65.61;99498.50;2619655;54;20053;-66
2022/06/11 02:08:21;;;;;;;4.57;3.17;;;;;;;15.55;65.62;99494.00;2619353;54;20034;-66
2022/06/11 02:10:59;;;;;;;10.70;3.60;;;;;;;15.63;65.65;99493.78;2619420;54;20042;-66
2022/06/11 02:13:36;;;;;;;4.85;3.28;;;;;;;15.57;65.29;99489.28;2618596;47;20558;-66
2022/06/11 02:16:13;;;;;;;5.40;3.20;;;;;;;15.60;65.21;99491.56;2618884;47;20045;-67
2022/06/11 02:18:49;;;;;;;6.63;3.10;;;;;;;15.58;65.07;99496.25;2619291;54;20030;-66
2022/06/11 02:21:22;;;;;;;6.55;3.53;;;;;;;15.52;64.70;99489.09;2619338;54;20030;-65
2022/06/11 02:23:55;;;;;;;4.70;3.70;;;;;;;15.44;65.18;99490.13;2619240;54;20030;-65
2022/06/11 02:26:29;;;;;;;4.72;3.30;;;;;;;15.44;64.96;99497.31;2618992;51;20031;-65
2022/06/11 02:29:01;;;;;;;7.07;3.50;;;;;;;15.39;65.28;99494.44;2619038;54;20030;-67
2022/06/11 02:31:35;;;;;;;5.18;3.25;;;;;;;15.35;65.32;99491.38;2619232;54;20037;-66
2022/06/11 02:34:08;;;;;;;;;;;;;;;15.26;65.05;99488.09;2619303;54;20030;-66
2022/06/11 02:36:48;;;;;;;7.03;2.88;;;;;;;15.22;65.89;99491.38;2619739;39;20349;-67
2022/06/11 02:39:18;;;;;;;8.13;3.33;;;;;;;15.37;65.46;99491.97;2619769;54;20038;-67
2022/06/11 02:41:48;;;;;;;5.88;3.42;;;;;;;15.30;65.23;99488.50;2620116;54;20039;-66
2022/06/11 02:44:18;;;;;;;5.00;3.45;;;;;;;15.23;65.59;99493.84;2620336;54;20038;-67
2022/06/11 02:46:47;;;;;;;4.85;3.40;;;;;;;15.20;65.90;99488.13;2622589;54;20031;-66
2022/06/11 02:49:24;;;;;;;3.88;3.40;;;;;;;15.16;66.29;99490.38;2624525;54;20038;-67
2022/06/11 02:51:57;;;;;;;9.18;3.97;;;;;;;15.13;66.24;99488.09;2623075;54;20042;-67
2022/06/11 02:54:28;;;;;;;;;;;;;;;15.08;66.41;99491.38;2627162;54;20042;-66
2022/06/11 02:57:01;;;;;;;6.25;3.50;;;;;;;15.09;66.42;99493.00;2628305;54;19946;-66
2022/06/11 02:59:31;;;;;;;5.45;3.75;;;;;;;15.12;66.61;99481.16;2629458;47;20023;-66
2022/06/11 03:02:01;;;;;;;6.78;3.80;;;;;;;15.12;66.10;99483.81;2629931;54;20031;-66
2022/06/11 03:04:33;;;;;;;5.18;3.00;;;;;;;15.08;66.59;99494.03;2629710;54;20019;-65
2022/06/11 03:07:03;;;;;;;3.92;3.03;;;;;;;14.96;66.44;99489.53;2629823;54;20026;-67
2022/06/11 03:09:35;;;;;;;7.10;3.70;;;;;;;14.86;67.21;99498.75;2628215;54;20035;-66
2022/06/11 03:12:07;;;;;;;6.40;3.13;;;;;;;14.90;66.98;99501.84;2627774;47;20586;-68
2022/06/11 03:14:37;;;;;;;7.85;3.42;;;;;;;15.06;67.24;99495.25;2626466;54;20033;-66
2022/06/11 03:17:08;;;;;;;3.78;3.13;;;;;;;15.23;66.92;99499.19;2626198;54;20038;-66
2022/06/11 03:19:41;;;;;;;5.38;3.35;;;;;;;15.30;66.52;99507.97;2626402;54;20042;-68
2022/06/11 03:22:11;;;;;;;3.50;2.75;;;;;;;15.27;66.45;99512.91;2626532;54;20033;-66
2022/06/11 03:24:41;;;;;;;5.28;3.38;;;;;;;15.33;66.96;99512.88;2623095;54;20037;-67
2022/06/11 03:27:10;;;;;;;4.63;3.30;;;;;;;15.39;66.71;99513.94;2619304;51;20019;-66
2022/06/11 03:29:40;;;;;;;9.55;3.97;;;;;;;15.46;66.96;99514.72;2621500;54;20045;-67
2022/06/11 03:32:11;;;;;;;5.95;3.38;;;;;;;15.55;67.01;99515.31;2620669;54;20038;-66
2022/06/11 03:34:43;;;;;;;7.07;3.50;;;;;;;15.64;66.42;99519.41;2620947;54;20026;-67
2022/06/11 03:37:12;;;;;;;5.63;3.15;;;;;;;15.70;66.49;99517.78;2620309;54;20030;-67
2022/06/11 03:39:43;;;;;;;5.28;3.67;;;;;;;15.72;66.74;99521.91;2622613;54;20059;-66
2022/06/11 03:42:13;;;;;;;4.55;3.40;;;;;;;15.76;66.30;99512.47;2623715;54;20042;-67
2022/06/11 03:44:42;;;;;;;5.70;3.30;;;;;;;15.84;66.36;99519.41;2624524;54;20581;-67
2022/06/11 03:47:12;;;;;;;3.85;3.00;;;;;;;15.94;65.84;99516.31;2624103;54;20065;-67
2022/06/11 03:49:44;;;;;;;5.78;3.30;;;;;;;15.99;65.53;99509.28;2623880;54;20034;-66
2022/06/11 03:52:14;;;;;;;4.70;3.28;;;;;;;15.94;65.50;99518.97;2624231;54;20027;-67
2022/06/11 03:54:44;;;;;;;4.10;3.15;;;;;;;15.97;65.68;99514.03;2624083;54;20030;-66
2022/06/11 03:57:15;;;;;;;5.68;3.65;;;;;;;16.03;65.32;99521.19;2623541;54;20038;-66
2022/06/11 03:59:45;;;;;;;5.60;3.60;;;;;;;16.05;65.56;99513.81;2622754;54;20039;-66
2022/06/11 04:02:14;;;;;;;7.00;3.83;;;;;;;16.00;64.77;99510.97;2621876;47;20788;-66
2022/06/11 04:04:46;;;;;;;5.55;4.15;;;;;;;15.92;65.23;99519.19;2621794;54;20023;-66
2022/06/11 04:07:16;;;;;;;5.90;3.60;;;;;;;15.91;65.73;99519.38;2622160;54;20031;-66
2022/06/11 04:09:48;;;;;;;6.15;3.15;;;;;;;15.92;65.60;99519.19;2621418;54;20038;-66
2022/06/11 04:12:18;;;;;;;5.97;3.38;;;;;;;16.02;65.59;99518.72;2622645;54;20038;-65
2022/06/11 04:14:50;;;;;;;5.97;3.42;;;;;;;16.07;65.30;99521.59;2624855;46;20110;-67
2022/06/11 04:17:25;;;;;;;5.25;3.55;;;;;;;16.03;64.90;99518.50;2621938;54;20045;-66
2022/06/11 04:19:57;;;;;;;4.65;3.45;;;;;;;16.09;65.13;99515.03;2622156;54;20034;-66
2022/06/11 04:22:27;;;;;;;7.07;3.30;;;;;;;16.18;64.93;99526.25;2621657;54;20565;-66
2022/06/11 04:24:57;;;;;;;5.13;3.22;;;;;;;16.25;64.85;99518.25;2622124;54;20038;-66
2022/06/11 04:27:26;;;;;;;4.65;3.08;;;;;;;16.28;64.73;99523.13;2622147;54;20042;-66
2022/06/11 04:29:59;;;;;;;6.30;3.13;;;;;;;16.28;64.56;99521.28;2623162;39;20454;-67
2022/06/11 04:32:31;;;;;;;4.03;2.73;;;;;;;16.36;64.86;99528.22;2622379;54;20033;-67
2022/06/11 04:35:03;;;;;;;6.10;3.20;;;;;;;16.52;63.95;99526.94;2622448;54;20015;-67
2022/06/11 04:37:34;;;;;;;6.13;3.60;;;;;;;16.50;63.78;99521.81;2622889;39;20422;-66
2022/06/11 04:40:07;;;;;;;4.72;3.20;;;;;;;16.38;63.46;99534.19;2622496;54;20035;-66
2022/06/11 04:42:38;;;;;;;6.68;3.42;;;;;;;16.34;64.14;99531.13;2624508;54;20030;-67
2022/06/11 04:45:10;;;;;;;6.53;3.63;;;;;;;16.49;64.04;99535.34;2627072;54;20034;-66
2022/06/11 04:47:39;;;;;;;5.03;3.58;;;;;;;16.49;63.15;99546.88;2626876;54;20026;-66
2022/06/11 04:50:16;;;;;;;9.38;3.72;;;;;;;16.41;63.93;99535.59;2627004;54;20042;-65
2022/06/11 04:52:46;;;;;;;7.75;3.80;;;;;;;16.35;63.63;99535.41;2627573;39;20680;-66
2022/06/11 04:55:16;;;;;;;4.95;3.40;;;;;;;16.33;64.01;99540.16;2628094;39;20411;-66
2022/06/11 04:57:47;;;;;;;4.07;3.30;;;;;;;16.53;64.44;99540.06;2626878;54;20030;-65
2022/06/11 05:00:20;;;;;;;7.03;3.88;;;;;;;16.60;63.00;99540.03;2623768;54;20039;-66
2022/06/11 05:02:51;;;;;;;6.93;4.00;;;;;;;16.59;63.34;99541.06;2623872;54;20037;-66
2022/06/11 05:05:24;;;;;;;7.05;3.33;;;;;;;16.54;63.60;99536.38;2622373;54;20023;-65
2022/06/11 05:07:53;;;;;;;4.88;3.28;;;;;;;16.55;63.61;99534.50;2622407;54;20026;-67
2022/06/11 05:10:29;;;;;;;5.10;3.63;;;;;;;16.64;62.87;99543.91;2624290;54;20038;-67
2022/06/11 05:13:04;;;;;;;4.03;2.88;;;;;;;16.57;63.24;99535.94;2623673;54;20026;-66
2022/06/11 05:15:35;;;;;;;6.40;3.00;;;;;;;16.71;63.52;99544.69;2621130;47;20023;-67
2022/06/11 05:18:06;;;;;;;5.15;3.10;;;;;;;16.89;62.51;99541.31;2621209;54;20085;-67
2022/06/11 05:20:41;;;;;;;5.03;3.13;;;;;;;16.88;62.43;99545.03;2619747;54;20085;-66
2022/06/11 05:23:12;;;;;;;8.10;3.00;;;;;;;16.87;62.70;99543.41;2622363;47;20023;-66
2022/06/11 05:25:43;;;;;;;5.35;3.05;;;;;;;16.90;62.58;99536.78;2621954;54;20038;-67
2022/06/11 05:28:19;;;;;;;5.03;3.15;;;;;;;16.97;62.66;99549.06;2623738;54;20030;-65
2022/06/11 05:30:52;;;;;;;5.43;3.35;;;;;;;17.07;62.12;99544.09;2623354;46;20023;-68
2022/06/11 05:33:23;;;;;;;5.05;2.78;;;;;;;17.04;61.86;99549.84;2621149;54;20035;-66
2022/06/11 05:35:56;;;;;;;8.23;3.00;;;;;;;17.05;61.95;99548.81;2620686;54;20121;-66
2022/06/11 05:38:30;;;;;;;7.65;3.63;;;;;;;17.11;62.16;99544.47;2620739;54;20037;-66
2022/06/11 05:41:01;;;;;;;5.13;3.30;;;;;;;17.16;62.03;99546.50;2620593;54;20045;-66
2022/06/11 05:43:31;;;;;;;6.03;3.05;;;;;;;17.17;61.73;99553.47;2620794;54;20034;-66
2022/06/11 05:46:05;;;;;;;4.47;2.63;;;;;;;17.27;61.75;99549.28;2620098;54;20049;-66
2022/06/11 05:48:38;;;;;;;6.45;3.95;;;;;;;17.49;61.69;99540.88;2619594;54;20030;-67
2022/06/11 05:51:15;;;;;;;5.80;3.75;;;;;;;17.67;60.82;99529.38;2619689;54;20042;-65
2022/06/11 05:53:49;;;;;;;3.42;3.08;;;;;;;17.81;61.03;99537.09;2619340;54;20046;-67
2022/06/11 05:56:20;;;;;;;5.32;3.55;;;;;;;18.05;60.21;99537.25;2619463;54;20049;-68
2022/06/11 05:58:54;;;;;;;3.53;2.88;;;;;;;18.25;59.65;99545.06;2619665;54;20026;-66
2022/06/11 06:01:35;;;;;;;9.95;6.80;;;;;;;18.45;59.48;99536.75;2619434;54;20146;-68
2022/06/11 06:04:06;;;;;;;6.65;3.53;;;;;;;18.54;58.42;99535.41;2619433;54;20066;-66
2022/06/11 06:06:38;;;;;;;4.63;2.97;;;;;;;18.53;57.95;99539.09;2619716;54;20023;-65
2022/06/11 06:09:08;;;;;;;5.57;4.00;;;;;;;18.68;58.24;99538.72;2619137;54;20034;-67
2022/06/11 06:11:38;;;;;;;4.18;3.05;;;;;;;18.81;57.88;99542.03;2619151;54;20053;-66
2022/06/11 06:14:07;;;;;;;5.20;2.90;;;;;;;18.80;57.68;99531.56;2619196;54;20278;-66
2022/06/11 06:16:37;;;;;;;7.35;4.00;;;;;;;18.92;57.28;99539.63;2619075;54;20081;-66
2022/06/11 06:19:08;;;;;;;7.45;4.10;;;;;;;18.84;57.93;99537.28;2619187;54;20036;-66
2022/06/11 06:21:40;;;;;;;6.00;4.47;;;;;;;18.98;57.41;99536.88;2618935;47;20039;-67
2022/06/11 06:24:11;;;;;;;5.10;3.03;;;;;;;19.07;57.34;99540.03;2618438;54;20034;-66
2022/06/11 06:26:41;;;;;;;4.28;3.38;;;;;;;19.18;57.26;99536.53;2618733;54;20038;-67
2022/06/11 06:29:11;;;;;;;5.32;3.05;;;;;;;19.37;56.97;99545.31;2619109;54;20041;-67
2022/06/11 06:31:41;;;;;;;6.82;3.47;;;;;;;19.58;55.83;99545.78;2619640;54;20067;-67
2022/06/11 06:34:11;;;;;;;7.47;3.15;;;;;;;19.51;55.99;99548.56;2618826;39;20362;-66
2022/06/11 06:36:43;;;;;;;5.35;3.35;;;;;;;19.63;56.28;99543.25;2619243;54;20082;-67
2022/06/11 06:39:13;;;;;;;8.57;3.83;;;;;;;19.80;55.73;99552.25;2619556;39;20470;-67
2022/06/11 06:41:43;;;;;;;5.68;2.92;;;;;;;19.83;55.82;99541.03;2618696;47;20027;-67
2022/06/11 06:44:13;;;;;;;5.85;3.50;;;;;;;19.86;55.72;99540.56;2619363;54;20061;-67
2022/06/11 06:46:43;;;;;;;4.93;3.33;;;;;;;19.84;55.70;99541.84;2619552;39;20514;-68
2022/06/11 06:49:18;;;;;;;5.60;2.90;;;;;;;19.87;55.72;99547.56;2618302;47;20035;-66
2022/06/11 06:51:50;;;;;;;6.43;2.92;;;;;;;19.85;55.50;99546.97;2619378;39;20454;-69
2022/06/11 22:02:44;;;;;;;5.53;3.67;;;;;;;20.23;55.08;99408.72;2599055;39;20474;-65
2022/06/11 22:05:14;;;;;;;6.00;3.88;;;;;;;20.14;55.04;99408.28;2619805;54;20023;-65
2022/06/11 22:07:44;;;;;;;6.93;3.95;;;;;;;20.10;55.65;99412.50;2620141;54;20030;-68
2022/06/11 22:10:13;;;;;;;5.82;3.90;;;;;;;20.07;55.99;99414.84;2620458;54;20034;-65
2022/06/11 22:12:43;;;;;;;5.57;3.83;;;;;;;20.07;55.99;99417.53;2620920;54;20031;-65
2022/06/11 22:15:14;;;;;;;6.05;4.35;;;;;;;20.05;56.04;99415.09;2621290;54;20042;-66
2022/06/11 22:17:46;;;;;;;6.60;4.00;;;;;;;19.94;56.56;99411.41;2620824;54;20038;-65
2022/06/11 22:20:16;;;;;;;5.53;3.80;;;;;;;19.90;56.74;99414.81;2621212;39;20469;-66
2022/06/11 22:22:47;;;;;;;5.78;4.10;;;;;;;19.86;56.58;99416.34;2619999;54;20057;-65
2022/06/11 22:25:20;;;;;;;7.22;4.63;;;;;;;19.81;57.11;99413.56;2619477;54;20030;-65
2022/06/11 22:27:51;;;;;;;4.53;3.78;;;;;;;19.69;57.07;99419.75;2618895;54;20026;-65
2022/06/11 22:30:23;;;;;;;6.40;5.05;;;;;;;19.73;56.93;99428.97;2619023;54;20038;-66
2022/06/11 22:32:56;;;;;;;4.93;4.18;;;;;;;19.74;57.27;99419.84;2619303;39;20481;-65
2022/06/11 22:35:28;;;;;;;6.25;3.88;;;;;;;19.76;57.41;99428.50;2618833;54;20014;-65
2022/06/11 22:37:59;;;;;;;13.60;9.65;;;;;;;19.71;57.43;99425.69;2618827;54;20034;-66
2022/06/11 22:40:29;;;;;;;5.95;3.90;;;;;;;19.61;57.88;99430.00;2618798;39;20532;-67
2022/06/11 22:42:59;;;;;;;4.80;4.38;;;;;;;19.57;57.75;99436.91;2618808;54;20034;-65
2022/06/11 22:45:30;;;;;;;6.90;4.40;;;;;;;19.55;58.08;99437.13;2618850;54;20082;-66
2022/06/11 22:48:02;;;;;;;4.90;4.05;;;;;;;19.58;58.20;99436.66;2618868;54;20053;-66
2022/06/11 22:50:32;;;;;;;5.63;4.70;;;;;;;19.49;58.31;99430.84;2620540;54;20082;-66
2022/06/11 22:53:04;;;;;;;5.97;4.55;;;;;;;19.41;58.37;99439.25;2622848;54;20033;-66
2022/06/11 22:55:36;;;;;;;6.18;4.50;;;;;;;19.45;58.55;99437.72;2621700;54;20030;-66
2022/06/11 22:58:08;;;;;;;5.82;4.38;;;;;;;19.43;58.71;99433.63;2621283;54;20023;-65
2022/06/11 23:00:41;;;;;;;5.43;4.07;;;;;;;19.34;58.88;99432.38;2621684;54;20042;-64
2022/06/11 23:03:16;;;;;;;7.63;5.47;;;;;;;19.36;58.53;99436.47;2620602;39;20418;-64
2022/06/11 23:05:46;;;;;;;5.40;4.32;;;;;;;19.31;59.09;99431.00;2619821;54;20037;-64
2022/06/11 23:08:15;;;;;;;6.97;5.07;;;;;;;19.27;59.28;99430.63;2622379;54;20029;-64
2022/06/11 23:10:45;;;;;;;5.43;4.30;;;;;;;19.24;58.74;99433.78;2621705;47;20027;-68
